createdAt,value
2022-09-12T00:02:27.211Z,5.18
2022-09-12T00:07:28.937Z,6.10
2022-09-12T00:12:30.680Z,9.75
2022-09-12T00:17:35.503Z,7.00
2022-09-12T00:22:37.741Z,5.22
2022-09-12T00:27:39.451Z,4.45
2022-09-12T00:32:41.167Z,4.57
2022-09-12T00:37:42.876Z,5.03
2022-09-12T00:42:44.638Z,4.60
2022-09-12T00:47:46.447Z,4.40
2022-09-12T00:52:54.055Z,4.20
2022-09-12T00:58:23.174Z,4.43
2022-09-12T01:03:25.766Z,3.72
2022-09-12T01:08:28.506Z,4.05
2022-09-12T01:13:31.187Z,3.83
2022-09-12T01:18:43.882Z,4.10
2022-09-12T01:24:09.377Z,4.55
2022-09-12T01:29:48.080Z,4.40
2022-09-12T01:35:02.898Z,4.45
2022-09-12T01:40:23.913Z,4.32
2022-09-12T01:45:38.877Z,3.85
2022-09-12T01:50:50.672Z,3.92
2022-09-12T01:56:02.089Z,3.75
2022-09-12T02:01:15.576Z,4.40
2022-09-12T02:06:23.901Z,4.30
2022-09-12T02:11:25.658Z,3.78
2022-09-12T02:16:34.445Z,4.60
2022-09-12T02:21:38.266Z,3.75
2022-09-12T02:26:59.691Z,4.00
2022-09-12T02:32:08.716Z,3.97
2022-09-12T02:37:30.750Z,4.07
2022-09-12T02:42:32.813Z,3.90
2022-09-12T02:47:52.933Z,4.13
2022-09-12T02:52:59.636Z,4.05
2022-09-12T02:58:05.113Z,3.92
2022-09-12T03:03:06.777Z,4.63
2022-09-12T03:08:17.337Z,4.28
2022-09-12T03:13:38.933Z,4.82
2022-09-12T03:18:58.746Z,4.30
2022-09-12T03:24:17.853Z,4.00
2022-09-12T03:29:20.219Z,4.40
2022-09-12T03:34:23.722Z,4.15
2022-09-12T03:39:26.806Z,4.15
2022-09-12T03:44:28.682Z,4.55
2022-09-12T03:49:30.401Z,4.18
2022-09-12T03:54:32.102Z,4.10
2022-09-12T03:59:33.846Z,4.45
2022-09-12T04:04:35.702Z,4.57
2022-09-12T04:09:37.845Z,4.22
2022-09-12T04:14:39.997Z,4.15
2022-09-12T04:19:41.809Z,4.88
2022-09-12T04:24:43.528Z,4.55
2022-09-12T04:29:45.237Z,4.45
2022-09-12T04:34:47.032Z,3.58
2022-09-12T04:39:49.440Z,6.75
2022-09-12T04:44:51.978Z,4.88
2022-09-12T04:49:53.947Z,5.10
2022-09-12T04:54:55.666Z,5.03
2022-09-12T04:59:57.434Z,4.90
2022-09-12T05:04:59.151Z,5.03
2022-09-12T05:10:00.994Z,15.73
2022-09-12T05:15:03.151Z,6.35
2022-09-12T05:20:05.234Z,6.00
2022-09-12T05:25:07.709Z,5.90
2022-09-12T05:30:10.282Z,6.47
2022-09-12T05:35:12.135Z,5.60
2022-09-12T05:40:17.658Z,6.57
2022-09-12T05:45:19.443Z,7.60
2022-09-12T05:50:21.550Z,6.50
2022-09-12T05:55:24.294Z,5.97
2022-09-12T06:00:30.406Z,6.47
2022-09-12T06:05:35.083Z,6.50
2022-09-12T06:10:37.262Z,6.20
2022-09-12T06:15:38.981Z,6.90
2022-09-12T06:20:40.711Z,7.40
2022-09-12T06:25:48.038Z,6.07
2022-09-12T06:30:49.861Z,5.83
2022-09-12T06:35:51.606Z,5.57
2022-09-12T06:40:53.795Z,5.00
2022-09-12T06:45:56.245Z,5.57
2022-09-12T06:50:58.722Z,5.18
2022-09-12T06:56:06.710Z,5.43
2022-09-12T07:06:12.590Z,6.15
2022-09-12T07:11:23.614Z,6.95
2022-09-12T07:16:25.718Z,11.10
2022-09-12T07:21:28.579Z,11.80
2022-09-12T07:26:30.793Z,10.23
2022-09-12T07:31:33.128Z,10.70
2022-09-12T07:36:34.985Z,11.90
2022-09-12T07:41:36.749Z,12.80
2022-09-12T07:46:40.229Z,12.18
2022-09-12T07:51:42.126Z,11.73
2022-09-12T07:56:43.857Z,11.93
2022-09-12T08:01:45.959Z,9.85
2022-09-12T08:06:47.670Z,11.07
2022-09-12T08:11:49.417Z,11.05
2022-09-12T08:16:51.123Z,11.55
2022-09-12T08:21:52.839Z,10.88
2022-09-12T08:26:54.549Z,10.90
2022-09-12T08:31:57.373Z,10.32
2022-09-12T08:36:59.267Z,9.90
2022-09-12T08:42:03.567Z,11.25
2022-09-12T08:47:35.750Z,10.30
2022-09-12T08:52:51.882Z,10.75
2022-09-12T08:57:54.270Z,10.95
2022-09-12T09:03:10.252Z,10.25
2022-09-12T09:08:23.523Z,14.57
2022-09-12T09:13:55.939Z,13.35
2022-09-12T09:19:00.907Z,13.98
2022-09-12T09:24:12.840Z,14.07
2022-09-12T09:29:17.077Z,13.40
2022-09-12T09:34:25.041Z,12.52
2022-09-12T09:44:49.086Z,10.57
2022-09-12T09:49:50.957Z,13.40
2022-09-12T09:54:58.047Z,12.05
2022-09-12T10:00:21.630Z,13.60
2022-09-12T10:05:23.895Z,10.77
2022-09-12T10:10:25.773Z,13.85
2022-09-12T10:15:27.592Z,10.68
2022-09-12T10:20:34.561Z,13.32
2022-09-12T10:25:36.313Z,11.30
2022-09-12T10:30:38.237Z,15.02
2022-09-12T10:35:48.632Z,13.55
2022-09-12T10:40:59.490Z,13.43
2022-09-12T10:46:16.356Z,10.57
2022-09-12T10:51:24.549Z,10.50
2022-09-12T10:56:31.145Z,12.13
2022-09-12T11:01:33.887Z,9.27
2022-09-12T11:06:45.529Z,9.98
2022-09-12T11:12:03.400Z,9.20
2022-09-12T11:17:41.784Z,10.55
2022-09-12T11:23:18.665Z,10.15
2022-09-12T11:28:39.160Z,9.07
2022-09-12T11:33:45.097Z,11.50
2022-09-12T11:38:47.006Z,8.65
2022-09-12T11:43:57.919Z,7.93
2022-09-12T11:49:01.831Z,9.93
2022-09-12T11:54:22.779Z,8.98
2022-09-12T12:00:02.531Z,9.57
2022-09-12T12:05:30.749Z,8.10
2022-09-12T12:10:41.646Z,7.82
2022-09-12T12:15:49.908Z,8.85
2022-09-12T12:20:53.237Z,9.52
2022-09-12T12:25:57.945Z,8.40
2022-09-12T12:31:01.939Z,6.72
2022-09-12T12:36:07.213Z,8.45
2022-09-12T12:41:17.901Z,8.68
2022-09-12T12:46:25.424Z,8.65
2022-09-12T12:51:36.461Z,8.57
2022-09-12T12:56:42.411Z,8.02
2022-09-12T13:01:55.106Z,8.98
2022-09-12T13:07:08.163Z,6.82
2022-09-12T13:12:20.774Z,6.18
2022-09-12T13:17:26.025Z,6.88
2022-09-12T13:22:40.574Z,6.40
2022-09-12T13:28:01.195Z,7.90
2022-09-12T13:33:29.870Z,6.30
2022-09-12T13:39:02.242Z,6.57
2022-09-12T13:44:09.641Z,6.25
2022-09-12T13:49:50.474Z,6.80
2022-09-12T13:54:55.842Z,6.18
2022-09-12T13:59:59.322Z,5.55
2022-09-12T14:05:10.364Z,5.32
2022-09-12T14:10:20.890Z,6.18
2022-09-12T14:15:27.334Z,5.90
2022-09-12T14:20:34.186Z,6.05
2022-09-12T14:25:41.297Z,5.95
2022-09-12T14:31:03.323Z,5.57
2022-09-12T14:36:08.650Z,7.03
2022-09-12T14:41:12.679Z,5.78
2022-09-12T14:46:37.277Z,5.82
2022-09-12T14:51:47.112Z,5.07
2022-09-12T14:56:59.256Z,5.18
2022-09-12T15:02:22.222Z,5.32
2022-09-12T15:07:35.799Z,4.90
2022-09-12T15:12:37.513Z,4.72
2022-09-12T15:17:39.250Z,5.05
2022-09-12T15:22:42.299Z,4.68
2022-09-12T15:27:50.255Z,5.00
2022-09-12T15:37:54.791Z,5.05
2022-09-12T15:42:56.590Z,4.60
2022-09-12T15:47:58.502Z,5.43
2022-09-12T15:53:00.288Z,5.32
2022-09-12T15:58:06.833Z,5.32
2022-09-12T16:03:23.874Z,4.53
2022-09-12T16:08:25.810Z,4.38
2022-09-12T16:13:27.573Z,4.90
2022-09-12T16:18:29.328Z,5.30
2022-09-12T16:23:31.211Z,5.78
2022-09-12T16:28:33.567Z,4.88
2022-09-12T16:33:35.355Z,4.90
2022-09-12T16:38:45.139Z,4.63
2022-09-12T16:43:47.414Z,5.30
2022-09-12T16:48:52.596Z,5.43
2022-09-12T16:53:55.618Z,5.60
2022-09-12T16:58:57.438Z,5.72
2022-09-12T17:03:59.670Z,5.13
2022-09-12T17:09:03.532Z,5.88
2022-09-12T17:14:07.624Z,5.93
2022-09-12T17:19:15.558Z,6.60
2022-09-12T17:24:18.142Z,7.18
2022-09-12T17:30:21.884Z,6.43
2022-09-12T17:35:23.619Z,6.90
2022-09-12T17:40:42.460Z,6.38
2022-09-12T17:45:57.252Z,5.85
2022-09-12T17:50:59.301Z,6.32
2022-09-12T17:56:05.114Z,5.80
2022-09-12T18:01:30.483Z,5.70
2022-09-12T18:06:33.245Z,5.95
2022-09-12T18:11:35.523Z,6.63
2022-09-12T18:16:37.685Z,5.97
2022-09-12T18:21:39.467Z,6.18
2022-09-12T18:26:43.577Z,5.88
2022-09-12T18:31:46.779Z,7.40
2022-09-12T18:36:50.457Z,7.88
2022-09-12T18:41:52.514Z,6.15
2022-09-12T18:46:54.302Z,5.40
2022-09-12T18:51:56.027Z,6.35
2022-09-12T18:56:57.824Z,6.25
2022-09-12T19:01:59.628Z,6.13
2022-09-12T19:07:01.578Z,8.30
2022-09-12T19:12:03.554Z,7.22
2022-09-12T19:17:05.605Z,6.38
2022-09-12T19:22:07.446Z,7.03
2022-09-12T19:27:09.376Z,6.13
2022-09-12T19:32:11.272Z,6.43
2022-09-12T19:37:13.212Z,5.95
2022-09-12T19:42:14.963Z,6.72
2022-09-12T19:47:16.947Z,6.50
2022-09-12T19:52:18.707Z,6.10
2022-09-12T19:57:21.019Z,6.65
2022-09-12T20:02:25.543Z,7.25
2022-09-12T20:07:27.478Z,6.00
2022-09-12T20:12:29.256Z,6.47
2022-09-12T20:17:31.557Z,6.43
2022-09-12T20:22:36.755Z,5.82
2022-09-12T20:27:41.237Z,6.10
2022-09-12T20:32:43.071Z,5.60
2022-09-12T20:37:45.797Z,6.05
2022-09-12T20:42:47.660Z,6.65
2022-09-12T20:47:49.619Z,5.80
2022-09-12T20:52:51.382Z,6.38
2022-09-12T20:57:53.115Z,6.20
2022-09-12T21:02:54.928Z,5.68
2022-09-12T21:07:56.754Z,5.78
2022-09-12T21:12:58.587Z,5.80
2022-09-12T21:18:00.322Z,5.80
2022-09-12T21:23:02.185Z,5.90
2022-09-12T21:28:03.963Z,5.45
2022-09-12T21:33:05.809Z,6.10
2022-09-12T21:38:07.575Z,6.13
2022-09-12T21:43:12.716Z,5.88
2022-09-12T21:48:15.206Z,5.63
2022-09-12T21:53:17.215Z,5.03
2022-09-12T21:58:19.549Z,5.40
2022-09-12T22:03:21.266Z,5.55
2022-09-12T22:08:23.019Z,5.50
2022-09-12T22:13:25.778Z,6.25
2022-09-12T22:18:27.651Z,5.82
2022-09-12T22:23:48.583Z,4.88
2022-09-12T22:28:50.674Z,5.30
2022-09-12T22:33:57.125Z,5.70
2022-09-12T22:38:59.712Z,4.95
2022-09-12T22:44:01.699Z,5.10
2022-09-12T22:49:04.850Z,5.47
2022-09-12T22:54:06.732Z,5.55
2022-09-12T22:59:08.862Z,5.65
2022-09-12T23:04:11.303Z,6.47
2022-09-12T23:09:13.031Z,5.32
2022-09-12T23:14:14.969Z,5.40
2022-09-12T23:19:16.831Z,5.65
2022-09-12T23:24:18.626Z,5.55
2022-09-12T23:29:20.364Z,5.00
2022-09-12T23:34:23.216Z,6.55
2022-09-12T23:39:24.986Z,5.85
2022-09-12T23:44:26.716Z,5.47
2022-09-12T23:49:28.439Z,5.28
2022-09-12T23:54:30.166Z,5.82
2022-09-12T23:59:31.921Z,6.18
